Charter Quote
Worldwide +1-877-727-2538 Call
Select Language Lang
SAFETY RELIABILITY EXPERIENCE

Private Jet Charter Services - Dayong Airport (ZGDY)

Paramount Business Jets offers private jet charter flights and luxury airliner charters to and from Dayong Airport.

AIRPORT INFORMATION
ICAOZGDY
IATADYG
LOCATIONDayong, China
FACILITY TYPEAIRPORT

At Paramount Business Jets you can hire chartered private jets to and from Dayong Airport with as little as 4 hours of notice. All flights booked via Paramount Business Jets are operated by certified direct air carriers that meet and exceed the FAA part 135 and 121 protocol or a foreign equivalent safety authority. Furthermore, Paramount Business Jets subscribes to ARGUS for their third party safety checks of operators, aircraft, and crews prior each and every flight to and from Dayong Airport and worldwide.

  • Quote a trip using Dayong Airport or call us 24/7 - 365 days a year at +1-877-727-2538.
Questions? Call +1-877-727-2538

METAR Weather Data at Dayong Airport, ZGDY, DYG

STATIONZGDY
OBSERVEDMon Jul 15, 07:00 UTC
NOWTue Jul 16, 04:11 UTC
AGE21:11 hr ago
WINDE at 9 mph
VISIBILITY16 miles
CLOUDSpartly cloudy
TEMP91°F (33°C)
DEWPT68°F (20°C)
HUMIDITY46%
HEAT INDEX95°F (35°C)
BAROMETER1003 hPa (29.62 in Hg)
METARZGDY 150700Z 10004MPS 9999 FEW040 33/20 Q1003 NOSIG

Call us on +1-877-727-2538 (24 Hours) to Hire a Private Jet or Get a Quick Quote.

Find Airports Near any Location

Processing
...